Time;durP1;ratioP1;P1;durP2;ratioP2;P2;SDS_P1;SDS_P2;PMS_P1;PMS_P2;Temp;Humidity;BMP_temperature;BMP_pressure;BME280_temperature;BME280_humidity;BME280_pressure;Samples;Min_cycle;Max_cycle;Signal;HPM_P1;HPM_P2
2022/11/12 00:00:55;;;;;;;8.95;6.90;;;25.40;99.90;;;;;;5012930;28;20295;-45
2022/11/12 00:03:21;;;;;;;11.88;7.10;;;25.40;99.90;;;;;;5013349;28;20378;-45
2022/11/12 00:05:48;;;;;;;11.52;7.38;;;25.40;99.90;;;;;;5013178;28;20112;-49
2022/11/12 00:08:14;;;;;;;11.10;7.05;;;25.40;99.90;;;;;;5013143;28;20018;-45
2022/11/12 00:10:39;;;;;;;9.38;6.85;;;25.40;99.90;;;;;;4995677;28;20501;-45
2022/11/12 00:13:05;;;;;;;11.02;6.95;;;25.40;99.90;;;;;;5013853;28;20108;-45
2022/11/12 00:15:32;;;;;;;10.38;7.80;;;25.40;99.90;;;;;;5016824;28;20022;-45
2022/11/12 00:17:57;;;;;;;9.85;6.75;;;25.40;99.90;;;;;;5017013;28;20022;-45
2022/11/12 00:20:23;;;;;;;9.98;7.13;;;25.30;99.90;;;;;;5016927;28;20040;-45
2022/11/12 00:22:49;;;;;;;9.57;6.40;;;25.40;99.90;;;;;;5016590;28;20030;-45
2022/11/12 00:25:15;;;;;;;9.88;6.63;;;25.40;99.90;;;;;;5016652;28;20064;-46
2022/11/12 00:27:40;;;;;;;9.73;7.43;;;25.40;99.90;;;;;;5016451;28;20080;-46
2022/11/12 00:30:07;;;;;;;11.50;6.88;;;25.30;99.90;;;;;;5016699;28;20026;-46
2022/11/12 00:32:36;;;;;;;11.20;7.47;;;25.30;99.90;;;;;;5016239;28;20041;-46
2022/11/12 00:35:03;;;;;;;13.15;7.40;;;25.30;99.90;;;;;;5016416;28;20474;-46
2022/11/12 00:37:30;;;;;;;9.88;6.65;;;25.30;99.90;;;;;;5016558;28;20034;-46
2022/11/12 00:39:55;;;;;;;12.10;6.90;;;25.30;99.90;;;;;;5016441;28;20033;-46
2022/11/12 00:42:21;;;;;;;10.80;7.32;;;25.30;99.90;;;;;;5016506;28;20030;-45
2022/11/12 00:44:48;;;;;;;12.70;6.90;;;25.30;99.90;;;;;;5016121;28;20506;-45
2022/11/12 00:47:15;;;;;;;9.98;6.82;;;25.30;99.90;;;;;;5016006;28;20484;-45
2022/11/12 00:49:41;;;;;;;9.82;6.75;;;25.30;99.90;;;;;;4998457;28;20034;-45
2022/11/12 00:52:07;;;;;;;11.27;6.75;;;25.30;99.90;;;;;;5015818;28;20088;-44
2022/11/12 00:54:32;;;;;;;11.30;7.15;;;25.30;99.90;;;;;;5015923;28;20077;-45
2022/11/12 00:56:58;;;;;;;11.63;7.20;;;25.30;99.90;;;;;;5015754;28;20022;-46
2022/11/12 00:59:24;;;;;;;11.80;7.40;;;25.30;99.90;;;;;;5007576;22;20076;-47
2022/11/12 01:01:49;;;;;;;13.13;7.20;;;25.30;99.90;;;;;;4996014;28;20022;-47
2022/11/12 01:04:15;;;;;;;12.15;6.72;;;25.30;99.90;;;;;;4996201;28;20037;-48
2022/11/12 01:06:41;;;;;;;11.27;6.72;;;25.20;99.90;;;;;;4996388;28;20018;-47
2022/11/12 01:09:08;;;;;;;9.88;6.85;;;25.30;99.90;;;;;;4996148;28;20029;-47
2022/11/12 01:11:35;;;;;;;9.63;6.53;;;25.30;99.90;;;;;;4994547;28;20038;-47
2022/11/12 01:14:04;;;;;;;11.70;6.60;;;25.30;99.90;;;;;;4995878;28;20029;-47
2022/11/12 01:16:34;;;;;;;9.35;6.80;;;25.20;99.90;;;;;;4996128;28;20106;-47
2022/11/12 01:19:02;;;;;;;14.43;7.50;;;25.20;99.90;;;;;;4995846;28;20018;-47
2022/11/12 01:21:30;;;;;;;12.95;6.95;;;25.20;99.90;;;;;;4995937;28;20034;-47
2022/11/12 01:23:58;;;;;;;8.93;6.70;;;25.20;99.90;;;;;;4995439;28;20502;-51
2022/11/12 01:26:24;;;;;;;11.38;7.28;;;25.20;99.90;;;;;;4995621;28;20085;-47
2022/11/12 01:28:50;;;;;;;12.52;7.70;;;25.20;99.90;;;;;;4995670;28;20018;-48
2022/11/12 01:31:20;;;;;;;12.68;6.43;;;25.20;99.90;;;;;;4995675;28;20085;-47
2022/11/12 01:33:48;;;;;;;10.38;6.60;;;25.20;99.90;;;;;;4995684;28;20022;-47
2022/11/12 01:36:16;;;;;;;10.43;6.57;;;25.20;99.90;;;;;;4995597;28;20467;-47
2022/11/12 01:38:44;;;;;;;9.90;6.43;;;25.20;99.90;;;;;;4995518;28;20036;-47
2022/11/12 01:41:11;;;;;;;;;;;25.20;99.90;;;;;;4995893;28;20386;-47
2022/11/12 01:43:37;;;;;;;;;;;25.20;99.90;;;;;;4996093;28;19910;-47
2022/11/12 01:46:13;;;;;;;14.20;6.80;;;25.20;99.90;;;;;;4995434;28;20373;-48
2022/11/12 01:48:52;;;;;;;9.20;6.70;;;25.10;99.90;;;;;;4995444;28;20105;-47
2022/11/12 01:51:21;;;;;;;9.68;6.13;;;25.20;99.90;;;;;;4995139;28;20034;-47
2022/11/12 01:53:50;;;;;;;11.90;6.30;;;25.10;99.90;;;;;;4995557;28;20023;-47
2022/11/12 01:56:17;;;;;;;11.85;7.10;;;25.10;99.90;;;;;;4994250;28;20102;-47
2022/11/12 01:58:44;;;;;;;9.40;6.33;;;25.10;99.90;;;;;;4995206;28;20034;-47
2022/11/12 02:01:10;;;;;;;10.80;6.65;;;25.10;99.90;;;;;;4995410;28;20096;-47
2022/11/12 02:03:35;;;;;;;11.98;6.15;;;25.10;99.90;;;;;;4995207;28;20034;-47
2022/11/12 02:06:06;;;;;;;10.18;6.80;;;25.10;99.90;;;;;;4995255;28;20037;-47
2022/11/12 02:08:33;;;;;;;9.10;5.60;;;25.10;99.90;;;;;;4994968;28;20182;-47
2022/11/12 02:11:14;;;;;;;10.18;6.50;;;25.10;99.90;;;;;;4994921;28;20022;-47
2022/11/12 02:14:02;;;;;;;10.85;5.95;;;25.10;99.90;;;;;;4994678;28;20431;-47
2022/11/12 02:16:39;;;;;;;11.32;5.90;;;25.10;99.90;;;;;;4994799;28;20052;-47
2022/11/12 02:19:09;;;;;;;12.52;6.60;;;25.10;99.90;;;;;;4994707;28;20029;-47
2022/11/12 02:21:35;;;;;;;11.40;6.03;;;25.10;99.90;;;;;;4994778;28;20149;-47
2022/11/12 02:24:24;;;;;;;9.38;6.30;;;25.10;99.90;;;;;;4994592;28;20363;-47
2022/11/12 02:26:52;;;;;;;10.10;6.38;;;25.10;99.90;;;;;;4989226;28;20136;-47
2022/11/12 02:29:18;;;;;;;12.02;5.97;;;25.10;99.90;;;;;;4994689;28;20022;-47
2022/11/12 02:31:44;;;;;;;11.02;5.30;;;25.00;99.90;;;;;;4994632;28;20030;-47
2022/11/12 02:34:10;;;;;;;11.07;6.18;;;25.00;99.90;;;;;;4994420;28;20030;-47
2022/11/12 02:36:35;;;;;;;8.23;5.63;;;25.00;99.90;;;;;;4992667;28;20031;-47
2022/11/12 02:39:02;;;;;;;9.23;6.05;;;25.00;99.90;;;;;;4994468;28;20022;-47
2022/11/12 02:41:28;;;;;;;9.15;5.90;;;25.00;99.90;;;;;;4994498;28;20457;-47
2022/11/12 02:43:54;;;;;;;10.32;5.97;;;25.00;99.90;;;;;;4994453;28;20026;-47
2022/11/12 02:46:20;;;;;;;11.90;6.35;;;25.00;99.90;;;;;;4993192;28;20023;-47
2022/11/12 02:48:45;;;;;;;10.40;6.25;;;25.00;99.90;;;;;;4994299;28;20034;-47
2022/11/12 02:51:11;;;;;;;8.57;5.50;;;25.00;99.90;;;;;;4994184;28;20026;-47
2022/11/12 02:53:37;;;;;;;14.95;7.00;;;25.00;99.90;;;;;;4994024;28;20121;-47
2022/11/12 02:56:03;;;;;;;7.95;5.75;;;25.00;99.90;;;;;;4994334;28;20072;-47
2022/11/12 02:58:29;;;;;;;8.75;5.78;;;25.00;99.90;;;;;;4994228;28;20049;-47
2022/11/12 03:00:55;;;;;;;9.07;5.93;;;25.00;99.90;;;;;;4994633;28;20061;-47
2022/11/12 03:03:21;;;;;;;10.75;5.68;;;25.00;99.90;;;;;;4994235;28;20109;-47
2022/11/12 03:05:55;;;;;;;9.30;5.93;;;25.00;99.90;;;;;;4994045;28;20530;-47
2022/11/12 03:08:21;;;;;;;11.27;5.50;;;25.00;99.90;;;;;;4993856;28;20030;-48
2022/11/12 03:10:47;;;;;;;10.43;4.97;;;25.00;99.90;;;;;;4994143;28;20100;-48
2022/11/12 03:13:13;;;;;;;11.57;5.88;;;25.00;99.90;;;;;;4993999;28;20474;-47
2022/11/12 03:15:38;;;;;;;8.73;5.80;;;25.00;99.90;;;;;;4994173;28;20481;-47
2022/11/12 03:18:04;;;;;;;9.02;6.25;;;25.00;99.90;;;;;;4992700;28;20085;-47
2022/11/12 03:20:30;;;;;;;11.25;6.13;;;24.90;99.90;;;;;;4993970;28;20031;-47
2022/11/12 03:22:56;;;;;;;9.57;5.65;;;24.90;99.90;;;;;;4993892;28;20108;-47
2022/11/12 03:25:22;;;;;;;8.68;5.22;;;24.90;99.90;;;;;;4993945;28;20074;-47
2022/11/12 03:27:47;;;;;;;10.65;5.35;;;24.90;99.90;;;;;;4994101;28;20094;-47
2022/11/12 03:30:13;;;;;;;9.43;5.07;;;24.90;99.90;;;;;;4992582;28;20049;-46
2022/11/12 03:32:39;;;;;;;10.75;5.95;;;24.90;99.90;;;;;;4993998;28;20092;-47
2022/11/12 03:35:05;;;;;;;13.82;5.00;;;24.90;99.90;;;;;;4993895;28;20030;-47
2022/11/12 03:37:31;;;;;;;10.43;5.28;;;24.90;99.90;;;;;;4992576;28;20477;-47
2022/11/12 03:39:56;;;;;;;11.88;5.30;;;24.90;99.90;;;;;;4993778;28;20093;-47
2022/11/12 03:42:22;;;;;;;8.48;5.32;;;24.90;99.90;;;;;;4993822;28;20024;-47
2022/11/12 03:44:48;;;;;;;11.52;5.38;;;24.90;99.90;;;;;;4993821;28;20030;-47
2022/11/12 03:47:13;;;;;;;8.35;5.20;;;24.90;99.90;;;;;;4994596;28;20026;-48
2022/11/12 03:49:39;;;;;;;8.00;4.82;;;24.80;99.90;;;;;;4997539;28;20026;-47
2022/11/12 03:52:05;;;;;;;9.13;5.28;;;24.80;99.90;;;;;;4997379;28;20035;-47
2022/11/12 03:54:31;;;;;;;11.30;5.57;;;24.80;99.90;;;;;;4997521;28;20026;-48
2022/11/12 03:56:56;;;;;;;9.35;5.43;;;24.80;99.90;;;;;;4997467;28;20106;-48
2022/11/12 03:59:22;;;;;;;9.00;5.65;;;24.80;99.90;;;;;;4980158;28;20042;-47
2022/11/12 04:01:48;;;;;;;9.23;6.10;;;24.80;99.90;;;;;;4997442;28;20050;-47
2022/11/12 04:04:13;;;;;;;9.98;5.47;;;24.80;99.90;;;;;;4997541;28;20109;-48
2022/11/12 04:09:23;;;;;;;11.10;5.65;;;24.80;99.90;;;;;;4997608;28;20033;-47
2022/11/12 04:11:49;;;;;;;11.68;5.90;;;24.80;99.90;;;;;;4997361;28;20034;-47
2022/11/12 04:14:14;;;;;;;8.82;5.22;;;24.80;99.90;;;;;;4997214;28;20069;-47
2022/11/12 04:22:10;;;;;;;9.52;5.25;;;24.80;99.90;;;;;;4997181;28;20049;-47
2022/11/12 04:27:24;;;;;;;10.20;5.67;;;24.70;99.90;;;;;;4997329;28;20415;-47
2022/11/12 04:32:37;;;;;;;8.85;5.50;;;24.70;99.90;;;;;;4996958;28;20057;-47
2022/11/12 04:35:05;;;;;;;12.00;6.25;;;24.70;99.90;;;;;;4996740;28;20463;-47
2022/11/12 04:37:43;;;;;;;8.32;5.32;;;24.70;99.90;;;;;;4997047;28;20022;-47
2022/11/12 04:45:58;;;;;;;11.55;5.90;;;24.70;99.90;;;;;;4996773;28;20061;-47
2022/11/12 04:48:24;;;;;;;12.95;5.68;;;24.70;99.90;;;;;;4996426;28;20028;-48
2022/11/12 04:50:59;;;;;;;9.15;5.40;;;24.70;99.90;;;;;;4996677;28;20071;-47
2022/11/12 04:53:26;;;;;;;10.27;5.53;;;24.70;99.90;;;;;;4996244;28;20037;-47
2022/11/12 04:55:53;;;;;;;12.00;5.00;;;24.70;99.90;;;;;;4996650;28;20471;-48
2022/11/12 04:58:20;;;;;;;10.23;4.85;;;24.70;99.90;;;;;;4996061;28;20356;-47
2022/11/12 05:00:46;;;;;;;9.98;5.53;;;24.70;99.90;;;;;;4996766;28;20046;-47
2022/11/12 05:03:12;;;;;;;8.53;5.70;;;24.70;99.90;;;;;;4996329;28;20022;-47
2022/11/12 05:05:38;;;;;;;10.73;5.85;;;24.60;99.90;;;;;;4996076;28;20326;-48
2022/11/12 05:08:04;;;;;;;12.30;6.18;;;24.70;99.90;;;;;;4995104;28;20062;-47
2022/11/12 05:10:30;;;;;;;14.25;6.32;;;24.70;99.90;;;;;;4994912;28;20033;-47
2022/11/12 05:12:55;;;;;;;10.00;5.38;;;24.70;99.90;;;;;;4995865;28;20089;-48
2022/11/12 05:15:21;;;;;;;10.13;4.97;;;24.70;99.90;;;;;;4996044;28;20030;-47
2022/11/12 05:17:47;;;;;;;12.73;5.82;;;24.70;99.90;;;;;;4995977;28;20459;-48
2022/11/12 05:20:14;;;;;;;12.88;5.60;;;24.70;99.90;;;;;;4996304;28;20027;-47
2022/11/12 05:22:40;;;;;;;11.32;5.30;;;24.60;99.90;;;;;;4996006;28;20921;-47
2022/11/12 05:25:07;;;;;;;9.18;5.28;;;24.60;99.90;;;;;;4995810;28;20096;-47
2022/11/12 05:27:33;;;;;;;11.68;5.47;;;24.60;99.90;;;;;;4995738;28;20521;-47
2022/11/12 05:29:59;;;;;;;10.10;5.20;;;24.60;99.90;;;;;;4995770;28;20109;-47
2022/11/12 05:32:25;;;;;;;11.02;5.32;;;24.60;99.90;;;;;;4995623;28;20041;-47
2022/11/12 05:34:51;;;;;;;10.57;5.47;;;24.60;99.90;;;;;;4995879;28;20378;-47
2022/11/12 05:37:18;;;;;;;10.88;5.20;;;24.60;99.90;;;;;;4995663;28;20030;-48
2022/11/12 05:39:43;;;;;;;11.82;5.97;;;24.60;99.90;;;;;;4995730;28;20499;-47
2022/11/12 05:42:09;;;;;;;11.45;5.28;;;24.60;99.90;;;;;;4995599;28;20038;-47
2022/11/12 05:44:35;;;;;;;12.52;5.18;;;24.60;99.90;;;;;;4995271;28;20030;-47
2022/11/12 05:47:00;;;;;;;11.70;4.88;;;24.60;99.90;;;;;;4995261;28;20026;-47
2022/11/12 05:49:26;;;;;;;11.27;4.90;;;24.60;99.90;;;;;;4994050;28;20114;-47
2022/11/12 05:51:52;;;;;;;9.43;5.13;;;24.60;99.90;;;;;;4995454;28;20043;-47
2022/11/12 05:54:18;;;;;;;11.80;5.10;;;24.60;99.90;;;;;;4995404;28;20030;-47
2022/11/12 05:56:44;;;;;;;9.10;5.15;;;24.60;99.90;;;;;;4995205;28;20025;-47
2022/11/12 05:59:12;;;;;;;15.05;4.78;;;24.50;99.90;;;;;;4995070;28;20430;-47
2022/11/12 06:01:42;;;;;;;10.93;4.57;;;24.50;99.90;;;;;;4995284;28;20033;-47
2022/11/12 06:04:13;;;;;;;59.20;6.93;;;24.60;99.90;;;;;;4994977;28;20034;-47
2022/11/12 06:06:40;;;;;;;11.77;4.90;;;24.50;99.90;;;;;;4995010;28;20053;-47
2022/11/12 06:09:06;;;;;;;8.45;5.03;;;24.50;99.90;;;;;;4995303;28;20018;-47
2022/11/12 06:11:33;;;;;;;12.18;4.97;;;24.50;99.90;;;;;;4993842;28;20041;-47
2022/11/12 06:13:59;;;;;;;16.45;5.05;;;24.50;99.90;;;;;;4994938;28;20018;-48
2022/11/12 06:16:25;;;;;;;12.00;5.85;;;24.50;99.90;;;;;;4994898;28;20018;-47
2022/11/12 06:18:50;;;;;;;10.65;4.47;;;24.50;99.90;;;;;;4995107;28;20383;-47
2022/11/12 06:21:20;;;;;;;11.18;4.75;;;24.50;99.90;;;;;;4994775;28;20490;-47
2022/11/12 06:23:55;;;;;;;16.30;5.45;;;24.50;99.90;;;;;;4994926;28;20439;-48
2022/11/12 06:26:21;;;;;;;12.82;5.82;;;24.50;99.90;;;;;;4994721;28;20026;-48
2022/11/12 06:28:48;;;;;;;11.93;4.75;;;24.50;99.90;;;;;;4994827;28;20022;-47
2022/11/12 06:31:14;;;;;;;11.70;4.70;;;24.50;99.90;;;;;;4994679;28;20031;-47
2022/11/12 06:33:40;;;;;;;9.32;5.53;;;24.50;99.90;;;;;;4994584;28;20398;-47
2022/11/12 06:36:06;;;;;;;12.20;6.30;;;24.50;99.90;;;;;;4994456;28;20019;-47
2022/11/12 06:38:34;;;;;;;12.32;5.03;;;24.50;99.90;;;;;;4994584;28;20081;-47
2022/11/12 06:41:00;;;;;;;;;;;24.50;99.90;;;;;;4995071;28;20106;-47
2022/11/12 06:43:28;;;;;;;15.77;5.38;;;24.50;99.90;;;;;;4994481;28;20378;-47
2022/11/12 06:45:58;;;;;;;10.82;4.63;;;24.50;99.90;;;;;;4994369;28;20471;-47
2022/11/12 06:48:24;;;;;;;12.00;4.65;;;24.50;99.90;;;;;;4994243;28;20111;-48
2022/11/12 06:50:50;;;;;;;8.27;4.72;;;24.50;99.90;;;;;;4994209;28;20022;-48
2022/11/12 06:53:15;;;;;;;11.70;5.32;;;24.40;99.90;;;;;;4993932;28;20038;-48
2022/11/12 06:55:41;;;;;;;13.23;5.60;;;24.40;99.90;;;;;;4994143;28;20027;-48
2022/11/12 06:58:07;;;;;;;12.85;5.68;;;24.40;99.90;;;;;;4994254;28;20037;-48
2022/11/12 07:00:32;;;;;;;12.85;5.53;;;24.50;99.90;;;;;;4993961;28;20070;-48
2022/11/12 07:02:58;;;;;;;9.43;4.88;;;24.50;99.90;;;;;;4994225;28;20033;-48
2022/11/12 07:05:24;;;;;;;11.93;5.30;;;24.40;99.90;;;;;;4994200;28;20034;-48
2022/11/12 07:07:50;;;;;;;14.10;5.32;;;24.40;99.90;;;;;;4993967;28;20026;-48
2022/11/12 07:10:15;;;;;;;11.90;5.32;;;24.40;99.90;;;;;;4994029;28;20025;-48
2022/11/12 07:12:41;;;;;;;11.00;5.70;;;24.40;99.90;;;;;;4993990;28;20117;-48
2022/11/12 07:15:07;;;;;;;11.52;5.35;;;24.40;99.90;;;;;;4994343;28;20033;-49
2022/11/12 07:17:33;;;;;;;9.18;4.78;;;24.40;99.90;;;;;;4994094;28;20030;-48
2022/11/12 07:19:59;;;;;;;9.98;5.03;;;24.40;99.90;;;;;;4993745;28;20037;-48
2022/11/12 07:22:25;;;;;;;13.55;6.43;;;24.40;99.90;;;;;;4993347;28;20026;-48
2022/11/12 07:24:51;;;;;;;12.68;5.72;;;24.40;99.90;;;;;;4993764;28;20113;-48
2022/11/12 07:27:17;;;;;;;11.07;5.47;;;24.40;99.90;;;;;;4993773;28;20030;-48
2022/11/12 07:29:42;;;;;;;12.93;5.30;;;24.40;99.90;;;;;;4993651;28;20026;-48
2022/11/12 07:32:08;;;;;;;12.27;6.18;;;24.40;99.90;;;;;;4993583;28;20424;-48
2022/11/12 07:34:34;;;;;;;14.07;6.63;;;24.40;99.90;;;;;;4993702;28;20030;-48
2022/11/12 07:36:59;;;;;;;11.27;4.93;;;24.40;99.90;;;;;;4993826;28;20026;-48
2022/11/12 07:39:25;;;;;;;14.32;5.93;;;24.40;99.90;;;;;;4993667;28;20026;-47
2022/11/12 07:41:51;;;;;;;13.63;6.20;;;24.40;99.90;;;;;;4993736;28;20536;-47
2022/11/12 07:44:17;;;;;;;7.85;5.15;;;24.40;99.90;;;;;;4993731;28;20054;-48
2022/11/12 07:46:42;;;;;;;11.75;5.72;;;24.40;99.90;;;;;;4993661;28;20371;-47
2022/11/12 07:49:08;;;;;;;14.55;5.95;;;24.40;99.90;;;;;;4993750;28;20023;-47
2022/11/12 07:51:34;;;;;;;12.07;5.72;;;24.40;99.90;;;;;;4993411;28;20030;-47
2022/11/12 07:53:59;;;;;;;11.77;6.07;;;24.40;99.90;;;;;;4993467;28;20022;-47
2022/11/12 07:56:27;;;;;;;9.60;6.15;;;24.40;99.90;;;;;;4992332;28;20018;-47
2022/11/12 07:58:53;;;;;;;10.15;5.40;;;24.40;99.90;;;;;;4993545;28;20081;-47
2022/11/12 08:01:32;;;;;;;13.63;5.65;;;24.40;99.90;;;;;;4993231;28;20467;-47
2022/11/12 08:03:59;;;;;;;15.10;6.28;;;24.50;99.90;;;;;;4993443;28;20106;-47
2022/11/12 08:06:25;;;;;;;11.77;5.55;;;24.40;99.90;;;;;;4993635;28;20102;-47
2022/11/12 08:08:52;;;;;;;18.48;6.45;;;24.40;99.90;;;;;;4993391;28;20372;-47
2022/11/12 08:11:18;;;;;;;12.70;6.47;;;24.50;99.90;;;;;;4993479;28;20414;-48
2022/11/12 08:13:44;;;;;;;12.38;6.60;;;24.50;99.90;;;;;;4992150;28;20034;-47
2022/11/12 08:16:09;;;;;;;12.93;7.18;;;24.50;99.90;;;;;;4993406;28;20061;-47
2022/11/12 08:18:35;;;;;;;11.07;5.57;;;24.50;99.90;;;;;;4993240;28;20483;-47
2022/11/12 08:21:02;;;;;;;13.13;6.00;;;24.50;99.90;;;;;;4993492;28;20026;-48
2022/11/12 08:23:28;;;;;;;16.10;7.32;;;24.50;99.90;;;;;;4993297;28;20097;-48
2022/11/12 08:26:02;;;;;;;12.75;5.80;;;24.50;99.90;;;;;;4993222;28;20034;-47
2022/11/12 08:28:29;;;;;;;11.93;6.05;;;24.60;99.90;;;;;;4993348;28;20022;-48
2022/11/12 08:30:55;;;;;;;11.80;6.28;;;24.60;99.90;;;;;;4993283;28;20027;-48
2022/11/12 08:33:21;;;;;;;13.57;6.43;;;24.60;99.90;;;;;;4993195;28;20380;-48
2022/11/12 08:35:48;;;;;;;10.15;6.25;;;24.60;99.90;;;;;;4996458;28;20019;-48
2022/11/12 08:38:14;;;;;;;11.00;6.28;;;24.60;99.90;;;;;;4996683;28;20026;-48
2022/11/12 08:40:40;;;;;;;15.23;7.30;;;24.60;99.90;;;;;;4996648;28;20119;-48
2022/11/12 08:43:08;;;;;;;17.02;7.82;;;24.70;99.90;;;;;;4996694;28;20107;-48
2022/11/12 08:45:36;;;;;;;13.50;7.95;;;24.70;99.90;;;;;;4997192;28;20034;-48
2022/11/12 08:48:04;;;;;;;15.98;7.07;;;24.70;99.90;;;;;;4996410;28;20030;-49
2022/11/12 08:50:30;;;;;;;10.82;6.97;;;24.70;99.90;;;;;;4995064;28;20511;-48
2022/11/12 08:53:08;;;;;;;12.25;7.25;;;24.70;99.90;;;;;;4996254;28;20117;-48
2022/11/12 08:55:35;;;;;;;14.45;6.63;;;24.80;99.90;;;;;;4996498;28;20033;-48
2022/11/12 08:58:01;;;;;;;14.38;6.97;;;24.80;99.90;;;;;;4996570;28;20113;-48
2022/11/12 09:00:33;;;;;;;13.10;6.80;;;24.80;99.90;;;;;;4996099;28;20097;-48
2022/11/12 09:03:00;;;;;;;15.93;7.85;;;24.90;99.90;;;;;;4996288;28;20202;-48
2022/11/12 09:05:25;;;;;;;17.53;7.40;;;24.90;99.90;;;;;;4996261;28;20471;-48
2022/11/12 09:08:01;;;;;;;11.57;6.68;;;25.00;99.90;;;;;;4996340;28;20071;-48
2022/11/12 09:10:28;;;;;;;15.23;7.28;;;25.00;99.90;;;;;;4996099;28;20481;-47
2022/11/12 09:12:54;;;;;;;11.57;6.73;;;25.00;99.90;;;;;;4996128;28;20088;-48
2022/11/12 09:15:22;;;;;;;13.45;6.90;;;25.10;99.90;;;;;;4996038;28;20029;-47
2022/11/12 09:17:53;;;;;;;;;;;25.10;99.90;;;;;;4996243;28;20035;-48
2022/11/12 09:20:19;;;;;;;12.32;6.97;;;25.20;99.90;;;;;;4996058;28;19948;-48
2022/11/12 09:22:44;;;;;;;13.32;7.75;;;25.20;99.90;;;;;;4995734;28;20448;-47
2022/11/12 09:25:10;;;;;;;10.48;6.00;;;25.20;99.90;;;;;;4996029;28;20046;-48
2022/11/12 09:27:36;;;;;;;11.65;6.47;;;25.30;99.90;;;;;;4995616;28;20049;-47
2022/11/12 09:30:02;;;;;;;13.73;6.88;;;25.30;99.90;;;;;;4995937;28;20386;-48
2022/11/12 09:32:28;;;;;;;11.30;7.18;;;25.30;99.90;;;;;;4995750;28;20046;-48
2022/11/12 09:34:53;;;;;;;13.43;7.13;;;25.30;99.90;;;;;;4995559;28;20382;-48
2022/11/12 09:37:19;;;;;;;13.02;6.43;;;25.40;99.90;;;;;;4995634;28;20023;-48
2022/11/12 09:39:45;;;;;;;12.23;6.38;;;25.40;99.90;;;;;;4995467;28;20037;-48
2022/11/12 09:42:21;;;;;;;13.57;7.45;;;25.50;99.90;;;;;;4995917;28;20031;-49
2022/11/12 09:45:00;;;;;;;14.57;7.30;;;25.60;99.90;;;;;;4995062;28;20487;-48
2022/11/12 09:47:31;;;;;;;16.13;7.63;;;25.60;99.90;;;;;;4995066;28;20023;-48
2022/11/12 09:50:10;;;;;;;12.45;6.47;;;25.70;99.90;;;;;;4995353;28;20383;-48
2022/11/12 09:52:37;;;;;;;14.23;7.25;;;25.70;99.90;;;;;;4995112;28;20034;-48
2022/11/12 09:55:07;;;;;;;;;;;25.70;99.90;;;;;;4995661;28;20041;-48
2022/11/12 09:57:33;;;;;;;14.52;7.03;;;25.80;99.90;;;;;;4995031;28;19906;-48
2022/11/12 10:00:01;;;;;;;11.68;6.70;;;25.80;99.90;;;;;;4994820;28;20054;-48
2022/11/12 10:02:38;;;;;;;13.18;6.55;;;25.90;99.90;;;;;;4994852;28;20023;-48
2022/11/12 10:05:44;;;;;;;13.82;7.15;;;25.90;99.90;;;;;;4994738;28;20022;-48
2022/11/12 10:08:16;;;;;;;15.23;7.22;;;26.00;99.90;;;;;;4985723;28;20030;-48
2022/11/12 10:10:53;;;;;;;14.25;7.63;;;26.00;99.90;;;;;;4994896;28;20037;-48
2022/11/12 10:13:38;;;;;;;14.10;6.93;;;26.10;99.90;;;;;;4994753;28;20035;-48
2022/11/12 10:16:42;;;;;;;13.88;7.00;;;26.20;99.90;;;;;;4995048;28;20420;-49
2022/11/12 10:19:43;;;;;;;13.65;6.80;;;26.30;99.90;;;;;;4992461;28;20037;-48
2022/11/12 10:22:24;;;;;;;12.27;6.90;;;26.30;99.90;;;;;;4996901;28;20498;-48
2022/11/12 10:24:50;;;;;;;12.70;7.00;;;26.30;99.90;;;;;;4994569;28;20141;-48
2022/11/12 10:27:21;;;;;;;15.35;6.95;;;26.40;99.90;;;;;;4994567;28;20475;-48
2022/11/12 10:29:53;;;;;;;10.05;6.95;;;26.50;99.90;;;;;;4994524;28;20518;-48
2022/11/12 10:32:19;;;;;;;12.98;7.05;;;26.50;99.90;;;;;;4994517;28;20537;-48
2022/11/12 10:34:44;;;;;;;11.75;6.93;;;26.50;99.90;;;;;;4994431;28;20101;-48
2022/11/12 10:37:21;;;;;;;10.07;6.60;;;26.60;99.90;;;;;;4994579;28;20029;-48
2022/11/12 10:39:47;;;;;;;14.32;6.80;;;26.60;99.90;;;;;;4994346;28;20072;-48
2022/11/12 10:42:16;;;;;;;17.15;7.15;;;26.70;99.90;;;;;;4994223;28;20475;-48
2022/11/12 10:44:43;;;;;;;10.25;6.80;;;26.70;99.90;;;;;;4994222;28;20034;-48
2022/11/12 10:47:25;;;;;;;15.52;7.10;;;26.80;99.90;;;;;;4994160;28;20489;-47
2022/11/12 10:50:20;;;;;;;13.00;7.30;;;26.80;99.90;;;;;;4994302;28;20026;-48
2022/11/12 10:52:57;;;;;;;16.88;7.35;;;26.90;99.90;;;;;;4993957;28;20034;-48
2022/11/12 10:55:25;;;;;;;12.15;7.38;;;26.90;99.90;;;;;;4993895;28;20015;-48
2022/11/12 10:58:12;;;;;;;;;;;26.90;99.90;;;;;;4993989;28;20026;-48
2022/11/12 11:00:59;;;;;;;11.27;6.72;;;27.00;99.90;;;;;;4993724;28;19917;-48
2022/11/12 11:03:34;;;;;;;11.05;7.32;;;27.00;99.90;;;;;;4993969;28;20466;-47
2022/11/12 11:06:16;;;;;;;12.75;8.00;;;27.10;99.90;;;;;;4993729;28;20038;-48
2022/11/12 11:08:48;;;;;;;17.33;8.50;;;27.10;99.90;;;;;;4994069;28;20105;-48
2022/11/12 11:11:18;;;;;;;12.32;7.03;;;27.10;99.90;;;;;;4992654;28;20030;-47
2022/11/12 11:13:45;;;;;;;10.68;6.97;;;27.20;99.90;;;;;;4993760;28;20437;-48
2022/11/12 11:16:14;;;;;;;13.68;7.43;;;27.20;99.90;;;;;;5008898;28;20387;-48
2022/11/12 11:18:44;;;;;;;14.40;7.47;;;27.30;99.90;;;;;;4992602;28;20035;-48
2022/11/12 11:21:30;;;;;;;12.20;7.40;;;27.30;99.90;;;;;;4993875;28;20057;-48
2022/11/12 11:24:31;;;;;;;12.23;7.35;;;27.30;99.90;;;;;;4993913;28;20030;-48
2022/11/12 11:27:03;;;;;;;13.98;7.40;;;27.30;99.90;;;;;;4993758;28;20026;-48
2022/11/12 11:29:47;;;;;;;15.30;7.60;;;27.30;99.90;;;;;;4994055;28;20049;-47
2022/11/12 11:32:34;;;;;;;16.63;7.30;;;27.40;99.90;;;;;;4993783;28;20038;-48
2022/11/12 11:35:18;;;;;;;19.65;8.07;;;27.40;99.90;;;;;;4992557;28;20018;-48
2022/11/12 11:38:14;;;;;;;16.13;8.00;;;27.40;99.90;;;;;;4992418;28;20035;-48
2022/11/12 11:41:16;;;;;;;12.43;7.97;;;27.50;99.90;;;;;;4992472;28;20027;-48
2022/11/12 11:43:48;;;;;;;14.98;7.93;;;27.50;99.90;;;;;;4993719;28;20483;-48
2022/11/12 11:46:20;;;;;;;13.68;7.57;;;27.60;99.90;;;;;;4993631;28;20030;-48
2022/11/12 11:48:57;;;;;;;11.73;7.25;;;27.60;99.90;;;;;;4993420;28;20117;-48
2022/11/12 11:51:40;;;;;;;;;;;27.60;99.90;;;;;;4993816;28;20108;-48
2022/11/12 11:54:28;;;;;;;14.75;8.13;;;27.60;99.90;;;;;;4993804;28;19913;-48
2022/11/12 11:56:57;;;;;;;16.45;8.40;;;27.70;99.90;;;;;;4993715;28;20372;-48
2022/11/12 11:59:32;;;;;;;14.57;7.88;;;27.70;99.90;;;;;;4993351;28;21431;-49
2022/11/12 12:01:58;;;;;;;14.13;8.20;;;27.70;99.90;;;;;;4993338;28;20041;-48
2022/11/12 12:04:50;;;;;;;18.08;8.18;;;27.70;99.90;;;;;;4993417;28;20026;-48
2022/11/12 12:07:44;;;;;;;16.13;8.85;;;27.70;99.90;;;;;;4993386;28;20048;-48
2022/11/12 12:10:18;;;;;;;14.02;8.80;;;27.70;99.90;;;;;;4997276;28;20026;-48
2022/11/12 12:12:59;;;;;;;16.95;8.20;;;27.70;99.90;;;;;;4996970;28;20541;-48
2022/11/12 12:15:40;;;;;;;14.25;8.00;;;27.80;99.90;;;;;;4997267;28;20041;-48
2022/11/12 12:18:14;;;;;;;14.20;8.23;;;27.80;99.90;;;;;;4997179;28;20440;-47
2022/11/12 12:20:57;;;;;;;14.60;8.75;;;27.80;99.90;;;;;;4997253;28;20026;-48
2022/11/12 12:23:32;;;;;;;14.82;8.70;;;27.80;99.90;;;;;;4996879;28;20099;-47
2022/11/12 12:26:01;;;;;;;16.42;9.20;;;27.90;99.90;;;;;;4996895;28;20026;-48
2022/11/12 12:28:43;;;;;;;14.77;8.57;;;27.90;99.90;;;;;;4996635;28;20364;-48
2022/11/12 12:31:19;;;;;;;15.00;9.20;;;27.90;99.90;;;;;;4996612;28;20022;-48
2022/11/12 12:34:18;;;;;;;16.23;9.73;;;27.90;99.90;;;;;;4996399;28;20562;-48
2022/11/12 12:36:45;;;;;;;15.25;8.45;;;27.90;99.90;;;;;;4996760;28;20015;-48
2022/11/12 12:39:11;;;;;;;15.85;10.05;;;27.90;99.90;;;;;;4996621;28;20115;-48
2022/11/12 12:41:39;;;;;;;14.85;9.20;;;27.90;99.90;;;;;;4996605;28;20054;-48
2022/11/12 12:44:09;;;;;;;15.70;9.43;;;27.90;99.90;;;;;;4995286;28;20018;-48
2022/11/12 12:46:45;;;;;;;16.25;10.13;;;28.00;99.90;;;;;;4996868;28;20093;-48
2022/11/12 12:49:16;;;;;;;15.32;9.40;;;28.00;99.90;;;;;;4996743;28;20480;-48
2022/11/12 12:51:42;;;;;;;15.27;9.38;;;28.00;99.90;;;;;;4996980;28;20045;-48
2022/11/12 12:54:36;;;;;;;18.25;10.73;;;28.00;99.90;;;;;;4996452;28;20026;-48
2022/11/12 12:57:32;;;;;;;17.52;9.38;;;28.10;99.90;;;;;;4996383;28;20022;-48
2022/11/12 13:00:33;;;;;;;16.02;8.68;;;28.10;99.90;;;;;;4996101;28;20077;-49
2022/11/12 13:02:59;;;;;;;15.38;9.90;;;28.10;99.90;;;;;;4996362;28;20022;-48
2022/11/12 13:05:31;;;;;;;19.80;9.32;;;28.10;99.90;;;;;;4995974;28;20026;-48
2022/11/12 13:08:19;;;;;;;17.25;9.43;;;28.10;99.90;;;;;;4996312;28;20038;-49
2022/11/12 13:10:47;;;;;;;18.77;9.77;;;28.10;99.90;;;;;;4996095;28;20030;-48
2022/11/12 13:13:17;;;;;;;16.90;9.23;;;28.10;99.90;;;;;;4995983;28;20145;-48